Terminal Aerodrome Forecast
Issued by NWS Brownsville, TX

Home | Current Version | Previous Version | Text Only | Print | Product List | Glossary On
Versions: 1 2 3 4 5 6 7 8 9 10 11 12 13 14 15 16 17 18 19
000
FTUS44 KBRO 010526
TAFBRO
TAF
KBRO 010526Z 0106/0206 36002KT P6SM BKN250
     FM011700 06008KT P6SM FEW040 BKN250
     FM020100 06003KT P6SM SCT200=

USA.gov is the U.S. government's official web portal to all federal, state and local government web resources and services.